Time;durP1;ratioP1;P1;durP2;ratioP2;P2;SDS_P1;SDS_P2;PMS_P1;PMS_P2;Temp;Humidity;BMP_temperature;BMP_pressure;BME280_temperature;BME280_humidity;BME280_pressure;Samples;Min_cycle;Max_cycle;Signal;HPM_P1;HPM_P2
2021/12/24 00:00:18;;;;;;;37.00;24.80;;;;;;;-2.66;81.74;97949.77;434451;1311;141821;-61
2021/12/24 00:10:24;;;;;;;34.60;23.00;;;;;;;-2.68;81.81;97922.91;434804;1312;182947;-61
2021/12/24 00:21:22;;;;;;;33.40;22.50;;;;;;;-2.66;81.94;97899.23;435623;1309;142639;-62
2021/12/24 00:41:22;;;;;;;35.70;22.90;;;;;;;-2.56;82.10;97856.19;435373;1309;142694;-61
2021/12/24 00:51:42;;;;;;;34.10;23.30;;;;;;;-2.52;82.26;97856.21;423405;1312;143129;-60
2021/12/24 01:01:48;;;;;;;32.30;22.10;;;;;;;-2.54;82.28;97826.83;432222;1314;141430;-61
2021/12/24 01:11:54;;;;;;;31.60;21.90;;;;;;;-2.54;82.54;97822.86;424214;1311;141316;-61
2021/12/24 01:22:32;;;;;;;35.60;23.00;;;;;;;-2.49;82.94;97808.29;435479;1309;143333;-63
2021/12/24 01:43:03;;;;;;;29.80;20.20;;;;;;;-2.42;82.91;97766.20;432974;1313;142453;-63
2021/12/24 01:53:10;;;;;;;33.40;21.60;;;;;;;-2.37;83.20;97739.08;434996;1315;143923;-60
2021/12/24 02:03:16;;;;;;;29.60;20.70;;;;;;;-2.32;83.16;97727.55;426723;1312;142416;-59
2021/12/24 02:13:22;;;;;;;28.10;20.70;;;;;;;-2.30;83.37;97726.99;421434;1310;142285;-59
2021/12/24 02:34:06;;;;;;;27.80;20.80;;;;;;;-2.25;84.02;97698.66;434976;1309;142758;-58
2021/12/24 02:44:12;;;;;;;28.20;20.20;;;;;;;-2.17;84.06;97684.46;433341;1310;141299;-59
2021/12/24 02:54:18;;;;;;;23.80;17.70;;;;;;;-2.10;84.31;97670.09;432552;1313;143799;-59
2021/12/24 03:04:24;;;;;;;26.50;17.50;;;;;;;-1.99;84.57;97662.27;433752;1311;144557;-59
2021/12/24 03:14:30;;;;;;;22.60;17.00;;;;;;;-1.87;84.60;97637.87;432830;1311;142955;-59
2021/12/24 03:24:36;;;;;;;21.50;16.70;;;;;;;-1.77;84.88;97624.39;434202;1309;142395;-59
2021/12/24 03:34:42;;;;;;;25.10;17.20;;;;;;;-1.68;85.05;97626.06;434448;1312;142024;-59
2021/12/24 03:44:56;;;;;;;20.80;15.90;;;;;;;-1.55;85.28;97617.23;431219;1307;141693;-60
2021/12/24 03:55:03;;;;;;;21.30;14.60;;;;;;;-1.46;85.49;97598.45;423444;1311;142147;-58
2021/12/24 04:05:10;;;;;;;19.60;14.60;;;;;;;-1.41;85.81;97588.07;431981;1311;141298;-59
2021/12/24 04:15:15;;;;;;;17.00;13.50;;;;;;;-1.32;86.09;97589.02;434790;1309;144786;-58
2021/12/24 04:25:22;;;;;;;16.00;12.90;;;;;;;-1.21;85.98;97573.56;434291;1311;142590;-58
2021/12/24 05:06:49;;;;;;;14.60;11.50;;;;;;;-0.87;86.50;97554.40;427309;1305;172797;-58
2021/12/24 05:17:06;;;;;;;12.90;10.00;;;;;;;-0.83;86.77;97556.97;422033;1309;141469;-58
2021/12/24 05:27:12;;;;;;;14.40;10.40;;;;;;;-0.80;86.52;97554.58;432694;1309;142763;-59
2021/12/24 05:37:17;;;;;;;12.00;10.30;;;;;;;-0.75;86.57;97564.63;434197;1310;142086;-59
2021/12/24 05:47:23;;;;;;;12.70;9.60;;;;;;;-0.72;86.76;97563.94;434442;1309;141446;-59
2021/12/24 05:57:29;;;;;;;11.80;9.10;;;;;;;-0.72;86.63;97553.63;434712;1307;142685;-59
2021/12/24 06:07:35;;;;;;;11.00;9.00;;;;;;;-0.67;86.77;97558.77;433939;1309;142153;-59
2021/12/24 06:17:41;;;;;;;10.80;8.60;;;;;;;-0.66;86.83;97555.24;434359;1311;142206;-58
2021/12/24 06:27:47;;;;;;;9.70;8.40;;;;;;;-0.65;86.57;97541.61;434026;1312;142028;-58
2021/12/24 06:37:53;;;;;;;9.70;8.30;;;;;;;-0.62;86.71;97534.25;434907;1307;142534;-58
2021/12/24 06:48:01;;;;;;;11.20;8.80;;;;;;;-0.59;86.65;97530.84;431400;1311;142304;-58
2021/12/24 06:58:07;;;;;;;13.40;8.20;;;;;;;-0.59;86.80;97533.77;431533;1313;143835;-59
2021/12/24 07:08:13;;;;;;;9.20;7.20;;;;;;;-0.60;86.78;97536.38;434964;1310;141537;-58
2021/12/24 07:18:18;;;;;;;11.20;9.20;;;;;;;-0.59;86.91;97535.80;423714;1311;141940;-59
2021/12/24 07:28:24;;;;;;;10.40;7.80;;;;;;;-0.53;87.19;97550.33;426514;1311;142390;-59
2021/12/24 07:38:30;;;;;;;10.50;8.50;;;;;;;-0.54;87.08;97553.27;432878;1311;143585;-59
2021/12/24 07:48:44;;;;;;;11.80;10.00;;;;;;;-0.53;86.98;97563.70;418298;1310;142157;-59
2021/12/24 07:58:50;;;;;;;12.70;11.10;;;;;;;-0.55;87.31;97567.25;435418;1309;142188;-59
2021/12/24 08:08:56;;;;;;;13.30;9.20;;;;;;;-0.44;87.22;97569.79;435613;1307;141858;-57
2021/12/24 08:19:02;;;;;;;12.30;10.50;;;;;;;-0.31;87.11;97569.45;429048;1310;145660;-59
2021/12/24 08:29:08;;;;;;;15.10;10.70;;;;;;;-0.22;86.95;97564.36;435514;1309;142624;-58
2021/12/24 08:39:14;;;;;;;15.80;11.80;;;;;;;-0.15;86.77;97549.55;434434;1310;143555;-59
2021/12/24 08:49:20;;;;;;;14.70;11.20;;;;;;;-0.09;86.74;97528.77;425854;1308;141337;-58
2021/12/24 08:59:27;;;;;;;14.50;10.70;;;;;;;-0.14;86.74;97510.44;435622;1308;142082;-59
2021/12/24 09:09:32;;;;;;;16.50;10.20;;;;;;;-0.10;86.74;97515.73;434809;1309;142237;-60
2021/12/24 09:19:45;;;;;;;12.20;9.40;;;;;;;-0.05;86.98;97513.77;434206;1310;142458;-55
2021/12/24 09:29:51;;;;;;;13.40;10.00;;;;;;;0.09;86.89;97507.33;435290;1309;142235;-63
2021/12/24 09:39:57;;;;;;;14.10;12.10;;;;;;;0.17;86.60;97496.75;434622;1310;142172;-60
2021/12/24 09:50:04;;;;;;;12.40;10.70;;;;;;;0.16;86.43;97499.71;426010;1310;142328;-59
2021/12/24 10:00:13;;;;;;;14.90;12.30;;;;;;;0.18;86.67;97484.67;433383;1311;142869;-70
2021/12/24 10:10:25;;;;;;;15.40;13.00;;;;;;;0.22;86.72;97463.27;422082;1311;144491;-69
2021/12/24 10:20:31;;;;;;;14.10;11.50;;;;;;;0.22;86.71;97450.16;435037;1309;143409;-59
2021/12/24 10:30:36;;;;;;;14.40;11.20;;;;;;;0.25;86.67;97431.92;433776;1308;142131;-69
2021/12/24 10:40:52;;;;;;;17.10;12.50;;;;;;;0.37;86.74;97423.00;433519;1311;142995;-66
2021/12/24 10:51:08;;;;;;;16.30;13.20;;;;;;;0.36;86.67;97407.73;431678;1311;141951;-64
2021/12/24 11:01:17;;;;;;;16.00;12.80;;;;;;;0.41;86.57;97404.71;434752;1311;141928;-66
2021/12/24 11:11:23;;;;;;;14.90;11.80;;;;;;;0.42;86.48;97403.61;433029;1312;142979;-65
2021/12/24 11:21:31;;;;;;;16.70;12.20;;;;;;;0.47;86.56;97395.95;433985;1311;142220;-65
2021/12/24 11:31:37;;;;;;;15.20;12.10;;;;;;;0.56;86.75;97381.63;435073;1308;142021;-66
2021/12/24 11:41:44;;;;;;;18.70;14.10;;;;;;;0.72;86.50;97355.88;435717;1309;143838;-63
2021/12/24 11:51:50;;;;;;;16.40;11.10;;;;;;;0.62;86.16;97381.11;434789;1311;143264;-57
2021/12/24 12:01:56;;;;;;;13.10;10.20;;;;;;;0.55;86.51;97379.11;430805;1305;141516;-58
2021/12/24 12:12:03;;;;;;;15.20;9.80;;;;;;;0.50;86.72;97367.52;417437;1311;141580;-60
2021/12/24 12:22:17;;;;;;;13.80;9.40;;;;;;;0.60;86.88;97357.10;434292;1310;142139;-60
2021/12/24 12:32:43;;;;;;;13.40;9.80;;;;;;;0.73;86.87;97333.14;435493;1309;141488;-62
2021/12/24 12:43:08;;;;;;;16.20;11.60;;;;;;;0.85;87.15;97327.05;430140;1311;141419;-62
2021/12/24 12:53:34;;;;;;;15.40;12.20;;;;;;;0.81;86.97;97329.66;433420;1310;141995;-61
2021/12/24 13:04:15;;;;;;;17.60;12.00;;;;;;;0.81;87.04;97323.01;434422;1309;465339;-58
2021/12/24 13:14:24;;;;;;;16.10;12.10;;;;;;;0.90;87.30;97318.65;434244;1312;143254;-58
2021/12/24 13:24:29;;;;;;;17.80;14.60;;;;;;;0.98;87.47;97316.77;433603;1309;141797;-58
2021/12/24 13:34:37;;;;;;;20.80;13.80;;;;;;;1.09;87.65;97310.79;429701;1308;142471;-58
2021/12/24 13:44:43;;;;;;;17.10;12.90;;;;;;;1.15;87.75;97305.10;435651;1309;142729;-59
2021/12/24 13:54:48;;;;;;;17.80;12.90;;;;;;;1.15;87.95;97311.15;434588;1310;143072;-58
2021/12/24 14:05:02;;;;;;;17.30;11.40;;;;;;;1.22;88.42;97311.67;435588;1309;142232;-58
2021/12/24 14:15:11;;;;;;;14.50;12.00;;;;;;;1.29;88.49;97310.95;434989;1311;142052;-58
2021/12/24 14:25:17;;;;;;;16.60;13.70;;;;;;;1.28;88.64;97318.06;435651;1308;142085;-59
2021/12/24 14:35:25;;;;;;;17.20;12.60;;;;;;;1.28;88.57;97310.67;435716;1310;144089;-59
2021/12/24 14:45:36;;;;;;;10.40;8.50;;;;;;;1.29;88.76;97318.02;433500;1309;142269;-58
2021/12/24 14:55:45;;;;;;;7.10;5.90;;;;;;;1.33;89.07;97307.56;434931;1310;142775;-59
2021/12/24 15:05:52;;;;;;;7.10;5.60;;;;;;;1.37;89.29;97296.66;435354;1309;144097;-58
2021/12/24 15:16:01;;;;;;;9.70;6.20;;;;;;;1.41;89.23;97304.18;432979;1311;142140;-58
2021/12/24 15:26:08;;;;;;;8.10;5.20;;;;;;;1.46;89.31;97306.23;435301;1310;141681;-58
2021/12/24 15:36:14;;;;;;;6.60;4.40;;;;;;;1.45;89.17;97306.85;434543;1311;142479;-58
2021/12/24 15:46:21;;;;;;;10.30;5.10;;;;;;;1.40;89.06;97329.39;435285;1310;141237;-58
2021/12/24 15:56:26;;;;;;;8.50;5.70;;;;;;;1.38;88.96;97330.70;435360;1311;141680;-58
2021/12/24 16:06:32;;;;;;;7.20;5.20;;;;;;;1.34;88.75;97347.67;431019;1311;141975;-58
2021/12/24 16:16:40;;;;;;;9.00;5.20;;;;;;;1.27;88.54;97340.70;434924;1310;142215;-58
2021/12/24 16:26:47;;;;;;;5.40;4.10;;;;;;;1.21;88.62;97345.38;435289;1309;143203;-58
2021/12/24 16:36:52;;;;;;;5.70;3.90;;;;;;;1.12;88.36;97349.91;429824;1311;141655;-58
2021/12/24 16:46:58;;;;;;;5.90;4.50;;;;;;;0.99;88.19;97353.07;418543;1311;141959;-57
2021/12/24 16:57:06;;;;;;;5.80;4.60;;;;;;;0.86;88.29;97357.16;426682;1311;141552;-58
2021/12/24 17:07:13;;;;;;;6.00;5.00;;;;;;;0.74;88.26;97383.30;427816;1312;141399;-58
2021/12/24 17:17:18;;;;;;;5.90;5.10;;;;;;;0.63;87.84;97395.71;431886;1313;141802;-59
2021/12/24 17:27:25;;;;;;;6.00;4.10;;;;;;;0.42;87.60;97378.98;430496;1311;142013;-65
2021/12/24 17:37:31;;;;;;;6.60;4.70;;;;;;;0.26;87.92;97400.71;427751;1310;140863;-59
2021/12/24 17:47:37;;;;;;;5.30;4.00;;;;;;;0.16;87.99;97416.46;421207;1315;141168;-59
2021/12/24 17:57:43;;;;;;;7.30;6.30;;;;;;;-0.01;87.89;97446.44;425324;1315;141743;-59
2021/12/24 18:07:49;;;;;;;8.10;5.30;;;;;;;-0.13;87.82;97471.71;431079;1315;140789;-59
2021/12/24 18:17:55;;;;;;;8.20;5.40;;;;;;;-0.28;87.70;97473.33;425494;1312;144093;-59
2021/12/24 18:28:01;;;;;;;8.30;5.10;;;;;;;-0.44;87.83;97489.13;427768;1311;140954;-59
2021/12/24 18:38:08;;;;;;;6.90;4.70;;;;;;;-0.58;88.09;97498.30;429786;1312;141401;-59
2021/12/24 18:48:15;;;;;;;7.20;6.00;;;;;;;-0.59;88.24;97514.00;431418;1312;142114;-59
2021/12/24 18:58:22;;;;;;;7.40;6.00;;;;;;;-0.58;88.24;97533.73;431941;1314;141414;-59
2021/12/24 19:08:28;;;;;;;9.60;7.40;;;;;;;-0.63;88.39;97545.49;423136;1313;141763;-58
2021/12/24 19:18:34;;;;;;;10.90;7.90;;;;;;;-0.67;88.21;97559.59;432795;1313;141845;-59
2021/12/24 19:28:40;;;;;;;9.10;7.30;;;;;;;-0.71;88.31;97572.69;434270;1310;141186;-59
2021/12/24 19:38:46;;;;;;;9.60;8.40;;;;;;;-0.69;88.36;97592.70;434452;1311;140990;-60
2021/12/24 19:48:51;;;;;;;9.60;8.20;;;;;;;-0.67;88.41;97613.27;433702;1311;141902;-59
2021/12/24 19:58:57;;;;;;;10.20;8.00;;;;;;;-0.69;88.35;97649.03;434207;1311;142640;-61
2021/12/24 20:09:04;;;;;;;13.80;10.10;;;;;;;-0.72;88.17;97656.59;429469;1308;142229;-60
2021/12/24 20:19:10;;;;;;;12.90;10.50;;;;;;;-0.81;88.18;97676.45;435482;1309;141386;-60
2021/12/24 20:29:17;;;;;;;15.20;11.30;;;;;;;-0.86;88.37;97687.34;435427;1311;142167;-63
2021/12/24 20:39:23;;;;;;;14.30;11.40;;;;;;;-0.89;88.24;97715.12;432396;1312;142314;-60
2021/12/24 20:49:28;;;;;;;14.30;11.80;;;;;;;-0.93;88.01;97732.66;424284;1311;142931;-61
2021/12/24 20:59:34;;;;;;;13.60;11.30;;;;;;;-0.96;88.10;97755.15;429999;1311;188537;-61
2021/12/24 21:09:40;;;;;;;16.90;12.30;;;;;;;-0.96;88.07;97760.15;432063;1313;143826;-61
2021/12/24 21:19:46;;;;;;;13.60;10.80;;;;;;;-0.97;87.80;97772.04;435119;1309;142099;-67
2021/12/24 21:29:53;;;;;;;17.30;12.50;;;;;;;-0.99;87.85;97790.65;429061;1311;142083;-60
2021/12/24 21:39:59;;;;;;;20.00;12.90;;;;;;;-1.01;87.57;97801.02;432468;1308;142810;-54
2021/12/24 21:50:09;;;;;;;15.70;12.00;;;;;;;-1.00;87.62;97813.20;434149;1309;141955;-57
2021/12/24 22:00:17;;;;;;;16.90;11.50;;;;;;;-0.99;87.35;97839.95;434164;1309;143141;-56
2021/12/24 22:10:23;;;;;;;7.30;6.20;;;;;;;-1.03;87.27;97872.73;434769;1311;144184;-58
2021/12/24 22:20:30;;;;;;;4.70;3.50;;;;;;;-1.34;85.34;97909.80;432768;1313;142247;-57
2021/12/24 22:30:36;;;;;;;5.10;3.90;;;;;;;-1.85;84.75;97936.40;418509;1309;142297;-57
2021/12/24 22:40:44;;;;;;;5.10;4.00;;;;;;;-2.18;85.09;97960.86;431534;1309;141264;-58
2021/12/24 22:50:49;;;;;;;4.90;3.80;;;;;;;-2.69;84.36;97989.27;433355;1309;140952;-51
2021/12/24 23:00:59;;;;;;;4.00;3.10;;;;;;;-3.06;84.48;98019.84;430581;1312;142241;-50
2021/12/24 23:11:06;;;;;;;2.70;2.40;;;;;;;-3.29;84.16;98044.19;435118;1307;141220;-51
2021/12/24 23:21:16;;;;;;;3.20;2.90;;;;;;;-3.42;83.90;98071.30;432971;1310;142965;-51
2021/12/24 23:31:22;;;;;;;3.60;2.50;;;;;;;-3.56;83.46;98104.92;433823;1312;142034;-60
2021/12/24 23:41:28;;;;;;;5.30;3.40;;;;;;;-3.76;82.76;98143.65;434220;1312;141765;-56
2021/12/24 23:51:34;;;;;;;4.40;3.10;;;;;;;-3.86;82.68;98160.36;432988;1311;142689;-58
